Cut Off, LA (70345)

2:23 AM CDT on July 28, 2015 (GMT -0500)
Lake View Dr, Raceland, LA | | Change Station
CLOSE
Current Station
Personal Weather Station
Location: Raceland, LA
Elevation: 20 ft
Nearby Weather Stations

Elev 20 ft 29.66 °N, 90.55 °W | Updated 4 minutes ago

Clear
Clear
76.4 °F
Feels Like 77 °F
N
0.0
Wind Variable Wind from WNW

Today
High -- | Low -- °F
--% Chance of Precip.
Yesterday
High -- | Low -- °F
Precip. -- in
6:18 AM 7:56 PM
Waxing Gibbous, 87% visible
Pressure 29.98 in
Visibility 7.0 miles
Clouds Clear
Heat Index 77 °F
Dew Point 75 °F
Humidity 94%
Rainfall 0.00 in
Snow Depth Not available.
UV 0 out of 12
Pollen 2.40 out of 12
Air Quality Not available.
Flu Activity Not available.
METAR KHUM 280715Z AUTO 00000KT 7SM CLR 25/24 A2998 RMK AO2 T02450240

More Conditions Fewer Conditions

Pressure 29.98 in
Visibility 7.0 miles
Clouds Clear
Heat Index 77 °F
Dew Point 75 °F
Humidity 94%
Rainfall 0.00 in
Snow Depth Not available.
UV 0 out of 12
Pollen 2.40 out of 12
Air Quality Not available.
Flu Activity Not available.
METAR KHUM 280715Z AUTO 00000KT 7SM CLR 25/24 A2998 RMK AO2 T02450240

More Conditions Fewer Conditions

10-Day Weather Forecast

×

Almanac

Astronomy

Jul. 28, 2015 Rise Set
Actual Time
Civil Twilight
Nautical Twilight
Astronomical Twilight
Moon
Length of Visible Light
Length of Day
Tomorrow will be .
, % of the Moon is Illuminated

Today's Extremes

State Highs State Lows

Community

WunderPhotos

Upload Photos

1,841,796 photos uploaded!

WunderBlogs® & News

Nearby

Air Quality

  Air Quality AQ Index Pollutant
Not available.

Snow Depth

Station Depth Elevation

Earthquake Activity

City Distance Mag. Time & Date
Minimum magnitude displayed is 2.5.

Coastal Water Temperatures

Place Temperature

Stations

Nearby Weather Stations

Station Location Temp. Windchill Dew Point Humidity Wind Precip. Elev Updated Type